PWSweather.com
Personal Weather Stations
Station Observations
KCOBOOMER
Belmont, Pueblo, CO 81001

BelmontPueblo, CO 81001

Lat: 38.2977486, Lon: -104.5754318

Elevation: 4795

Station Type: Davis Vantage Pro 2

http://www.puebloweather.net

Latest ConditionsUpdated 1:00:03 PM MDT Sunday, Apr 19, 2015
Currently Today's Max Today's Min Today's Average
Temperature 54.0°F12.2°C 54.3°F12.4°C 42.6°F5.9°C 46.3°F7.9°C
Dew Point 29.0°F-1.7°C 36.5°F2.5°C 28.4°F-2.0°C 32.1°F0.1°C
Winds 5.0 mph NE8.0 kmh NE 56.0 mph N90.1 kmh N - 19.8 mph 31.9 kmh
Wind Gusts 7.0 mph11.3 kmh 59.0 mph95.0 kmh - -
Humidity 38% 73% 38% 58%
Pressure 30.00 in1015.9 mb 30.06 in1017.9 mb 29.90 in1012.5 mb -
Hour Temp Dew Point Humidity Winds Wind Gusts Pressure Precip Precip Rate Daily Precip Total
01:00 PM 54.0°F12.2°C 29.0°F-1.7°C 38% 5.0 mph NE8.0 kmh NE 7.0 mph11.3 kmh 30.00 in1015.9 mb 0.00 in0.0 mm 0.00 in0.0 mm 0.00 in0.0 mm
12:55 PM 53.6°F12.0°C 31.7°F-0.2°C 43% 10.0 mph NW16.1 kmh NW 17.0 mph27.4 kmh 30.00 in1015.9 mb 0.00 in0.0 mm 0.00 in0.0 mm 0.00 in0.0 mm
12:50 PM 52.7°F11.5°C 29.7°F-1.3°C 41% 8.0 mph N12.9 kmh N 8.0 mph12.9 kmh 30.00 in1015.9 mb 0.00 in0.0 mm 0.00 in0.0 mm 0.00 in0.0 mm
12:45 PM 53.6°F12.0°C 30.5°F-0.8°C 41% 20.0 mph NW32.2 kmh NW 22.0 mph35.4 kmh 30.00 in1015.9 mb 0.00 in0.0 mm 0.00 in0.0 mm 0.00 in0.0 mm
12:40 PM 54.3°F12.4°C 29.3°F-1.5°C 38% 1.0 mph NE1.6 kmh NE 2.0 mph3.2 kmh 30.00 in1015.9 mb 0.00 in0.0 mm 0.00 in0.0 mm 0.00 in0.0 mm
12:35 PM 54.2°F12.3°C 30.4°F-0.9°C 40% 14.0 mph NE22.5 kmh NE 22.0 mph35.4 kmh 30.01 in1016.3 mb 0.00 in0.0 mm 0.00 in0.0 mm 0.00 in0.0 mm
12:30 PM 53.5°F11.9°C 29.8°F-1.2°C 40% 10.0 mph N16.1 kmh N 10.0 mph16.1 kmh 30.01 in1016.3 mb 0.00 in0.0 mm 0.00 in0.0 mm 0.00 in0.0 mm
12:25 PM 53.3°F11.8°C 30.8°F-0.7°C 42% 21.0 mph NE33.8 kmh NE 30.0 mph48.3 kmh 30.01 in1016.3 mb 0.00 in0.0 mm 0.00 in0.0 mm 0.00 in0.0 mm
12:20 PM 52.7°F11.5°C 29.7°F-1.3°C 41% 18.0 mph NNE29.0 kmh NNE 23.0 mph37.0 kmh 30.01 in1016.3 mb 0.00 in0.0 mm 0.00 in0.0 mm 0.00 in0.0 mm
12:15 PM 52.7°F11.5°C 29.7°F-1.3°C 41% 5.0 mph N8.0 kmh N 16.0 mph25.7 kmh 30.01 in1016.3 mb 0.00 in0.0 mm 0.00 in0.0 mm 0.00 in0.0 mm
12:10 PM 52.3°F11.3°C 29.9°F-1.2°C 42% 10.0 mph N16.1 kmh N 14.0 mph22.5 kmh 30.01 in1016.3 mb 0.00 in0.0 mm 0.00 in0.0 mm 0.00 in0.0 mm
12:05 PM 52.3°F11.3°C 29.9°F-1.2°C 42% 10.0 mph NE16.1 kmh NE 30.0 mph48.3 kmh 30.02 in1016.6 mb 0.00 in0.0 mm 0.00 in0.0 mm 0.00 in0.0 mm
12:00 PM 52.4°F11.3°C 30.0°F-1.1°C 42% 12.0 mph NW19.3 kmh NW 14.0 mph22.5 kmh 30.02 in1016.6 mb 0.00 in0.0 mm 0.00 in0.0 mm 0.00 in0.0 mm
11:55 AM 53.1°F11.7°C 30.6°F-0.8°C 42% 17.0 mph NW27.4 kmh NW 32.0 mph51.5 kmh 30.02 in1016.6 mb 0.00 in0.0 mm 0.00 in0.0 mm 0.00 in0.0 mm
11:50 AM 52.1°F11.2°C 30.3°F-0.9°C 43% 20.0 mph N32.2 kmh N 20.0 mph32.2 kmh 30.03 in1016.9 mb 0.00 in0.0 mm 0.00 in0.0 mm 0.00 in0.0 mm
11:45 AM 52.0°F11.1°C 30.2°F-1.0°C 43% 22.0 mph NNW35.4 kmh NNW 32.0 mph51.5 kmh 30.03 in1016.9 mb 0.00 in0.0 mm 0.00 in0.0 mm 0.00 in0.0 mm
11:40 AM 51.5°F10.8°C 30.9°F-0.6°C 45% 12.0 mph NNE19.3 kmh NNE 13.0 mph20.9 kmh 30.03 in1016.9 mb 0.00 in0.0 mm 0.00 in0.0 mm 0.00 in0.0 mm
11:35 AM 50.9°F10.5°C 29.8°F-1.2°C 44% 11.0 mph NNW17.7 kmh NNW 34.0 mph54.7 kmh 30.03 in1016.9 mb 0.00 in0.0 mm 0.00 in0.0 mm 0.00 in0.0 mm
11:30 AM 50.6°F10.3°C 30.1°F-1.1°C 45% 15.0 mph NW24.1 kmh NW 26.0 mph41.8 kmh 30.03 in1016.9 mb 0.00 in0.0 mm 0.00 in0.0 mm 0.00 in0.0 mm
11:25 AM 50.3°F10.2°C 29.8°F-1.2°C 45% 26.0 mph N41.8 kmh N 40.0 mph64.4 kmh 30.03 in1016.9 mb 0.00 in0.0 mm 0.00 in0.0 mm 0.00 in0.0 mm
11:20 AM 49.6°F9.8°C 29.2°F-1.6°C 45% 11.0 mph NW17.7 kmh NW 20.0 mph32.2 kmh 30.04 in1017.3 mb 0.00 in0.0 mm 0.00 in0.0 mm 0.00 in0.0 mm
11:15 AM 49.2°F9.6°C 29.3°F-1.5°C 46% 28.0 mph N45.1 kmh N 43.0 mph69.2 kmh 30.04 in1017.3 mb 0.00 in0.0 mm 0.00 in0.0 mm 0.00 in0.0 mm
11:10 AM 48.7°F9.3°C 29.4°F-1.4°C 47% 28.0 mph NNW45.1 kmh NNW 40.0 mph64.4 kmh 30.04 in1017.3 mb 0.00 in0.0 mm 0.00 in0.0 mm 0.00 in0.0 mm
11:05 AM 48.7°F9.3°C 29.4°F-1.4°C 47% 24.0 mph N38.6 kmh N 40.0 mph64.4 kmh 30.04 in1017.3 mb 0.00 in0.0 mm 0.00 in0.0 mm 0.00 in0.0 mm
11:00 AM 48.4°F9.1°C 29.1°F-1.6°C 47% 30.0 mph N48.3 kmh N 30.0 mph48.3 kmh 30.05 in1017.6 mb 0.00 in0.0 mm 0.00 in0.0 mm 0.00 in0.0 mm
10:55 AM 48.3°F9.1°C 29.0°F-1.7°C 47% 28.0 mph NW45.1 kmh NW 48.0 mph77.2 kmh 30.05 in1017.6 mb 0.00 in0.0 mm 0.00 in0.0 mm 0.00 in0.0 mm
10:50 AM 48.2°F9.0°C 28.9°F-1.7°C 47% 16.0 mph NW25.7 kmh NW 20.0 mph32.2 kmh 30.05 in1017.6 mb 0.00 in0.0 mm 0.00 in0.0 mm 0.00 in0.0 mm
10:45 AM 47.8°F8.8°C 30.1°F-1.1°C 50% 24.0 mph N38.6 kmh N 42.0 mph67.6 kmh 30.05 in1017.6 mb 0.00 in0.0 mm 0.00 in0.0 mm 0.00 in0.0 mm
10:40 AM 47.4°F8.6°C 28.7°F-1.8°C 48% 18.0 mph NNW29.0 kmh NNW 19.0 mph30.6 kmh 30.05 in1017.6 mb 0.00 in0.0 mm 0.00 in0.0 mm 0.00 in0.0 mm
10:35 AM 47.4°F8.6°C 28.7°F-1.8°C 48% 34.0 mph NNW54.7 kmh NNW 41.0 mph66.0 kmh 30.05 in1017.6 mb 0.00 in0.0 mm 0.00 in0.0 mm 0.00 in0.0 mm
10:30 AM 47.2°F8.4°C 28.5°F-1.9°C 48% 22.0 mph N35.4 kmh N 28.0 mph45.1 kmh 30.05 in1017.6 mb 0.00 in0.0 mm 0.00 in0.0 mm 0.00 in0.0 mm
10:25 AM 47.4°F8.6°C 29.2°F-1.6°C 49% 14.0 mph N22.5 kmh N 44.0 mph70.8 kmh 30.06 in1017.9 mb 0.00 in0.0 mm 0.00 in0.0 mm 0.00 in0.0 mm
10:20 AM 47.2°F8.4°C 29.0°F-1.7°C 49% 16.0 mph N25.7 kmh N 34.0 mph54.7 kmh 30.06 in1017.9 mb 0.00 in0.0 mm 0.00 in0.0 mm 0.00 in0.0 mm
10:15 AM 47.1°F8.4°C 29.4°F-1.4°C 50% 17.0 mph N27.4 kmh N 52.0 mph83.7 kmh 30.06 in1017.9 mb 0.00 in0.0 mm 0.00 in0.0 mm 0.00 in0.0 mm
10:10 AM 46.8°F8.2°C 28.7°F-1.8°C 49% 28.0 mph NNE45.1 kmh NNE 37.0 mph59.5 kmh 30.06 in1017.9 mb 0.00 in0.0 mm 0.00 in0.0 mm 0.00 in0.0 mm
10:05 AM 46.9°F8.3°C 28.8°F-1.8°C 49% 22.0 mph NNW35.4 kmh NNW 50.0 mph80.5 kmh 30.06 in1017.9 mb 0.00 in0.0 mm 0.00 in0.0 mm 0.00 in0.0 mm
10:00 AM 46.5°F8.1°C 28.9°F-1.7°C 50% 15.0 mph NNW24.1 kmh NNW 26.0 mph41.8 kmh 30.06 in1017.9 mb 0.00 in0.0 mm 0.00 in0.0 mm 0.00 in0.0 mm
09:55 AM 46.0°F7.8°C 28.9°F-1.7°C 51% 22.0 mph NW35.4 kmh NW 53.0 mph85.3 kmh 30.06 in1017.9 mb 0.00 in0.0 mm 0.00 in0.0 mm 0.00 in0.0 mm
09:50 AM 46.0°F7.8°C 28.4°F-2.0°C 50% 38.0 mph NNW61.2 kmh NNW 38.0 mph61.2 kmh 30.06 in1017.9 mb 0.00 in0.0 mm 0.00 in0.0 mm 0.00 in0.0 mm
09:45 AM 46.1°F7.8°C 29.5°F-1.4°C 52% 24.0 mph NW38.6 kmh NW 46.0 mph74.0 kmh 30.05 in1017.6 mb 0.00 in0.0 mm 0.00 in0.0 mm 0.00 in0.0 mm
09:40 AM 46.0°F7.8°C 28.9°F-1.7°C 51% 29.0 mph NNW46.7 kmh NNW 29.0 mph46.7 kmh 30.06 in1017.9 mb 0.00 in0.0 mm 0.00 in0.0 mm 0.00 in0.0 mm
09:35 AM 46.0°F7.8°C 28.9°F-1.7°C 51% 24.0 mph NNW38.6 kmh NNW 52.0 mph83.7 kmh 30.05 in1017.6 mb 0.00 in0.0 mm 0.00 in0.0 mm 0.00 in0.0 mm
09:30 AM 46.3°F7.9°C 28.7°F-1.8°C 50% 23.0 mph N37.0 kmh N 41.0 mph66.0 kmh 30.05 in1017.6 mb 0.00 in0.0 mm 0.00 in0.0 mm 0.00 in0.0 mm
09:25 AM 46.1°F7.8°C 29.5°F-1.4°C 52% 24.0 mph NW38.6 kmh NW 46.0 mph74.0 kmh 30.06 in1017.9 mb 0.00 in0.0 mm 0.00 in0.0 mm 0.00 in0.0 mm
09:20 AM 45.6°F7.6°C 29.0°F-1.7°C 52% 40.0 mph NNW64.4 kmh NNW 40.0 mph64.4 kmh 30.06 in1017.9 mb 0.00 in0.0 mm 0.00 in0.0 mm 0.00 in0.0 mm
09:15 AM 45.4°F7.4°C 29.3°F-1.5°C 53% 34.0 mph NNW54.7 kmh NNW 54.0 mph86.9 kmh 30.05 in1017.6 mb 0.00 in0.0 mm 0.00 in0.0 mm 0.00 in0.0 mm
09:10 AM 45.6°F7.6°C 29.0°F-1.7°C 52% 23.0 mph NNE37.0 kmh NNE 32.0 mph51.5 kmh 30.06 in1017.9 mb 0.00 in0.0 mm 0.00 in0.0 mm 0.00 in0.0 mm
09:05 AM 45.7°F7.6°C 29.6°F-1.3°C 53% 32.0 mph N51.5 kmh N 50.0 mph80.5 kmh 30.06 in1017.9 mb 0.00 in0.0 mm 0.00 in0.0 mm 0.00 in0.0 mm
09:00 AM 45.5°F7.5°C 28.4°F-2.0°C 51% 14.0 mph NNW22.5 kmh NNW 30.0 mph48.3 kmh 30.06 in1017.9 mb 0.00 in0.0 mm 0.00 in0.0 mm 0.00 in0.0 mm
08:55 AM 45.5°F7.5°C 29.4°F-1.4°C 53% 31.0 mph N49.9 kmh N 59.0 mph95.0 kmh 30.05 in1017.6 mb 0.00 in0.0 mm 0.00 in0.0 mm 0.00 in0.0 mm
08:50 AM 45.5°F7.5°C 29.4°F-1.4°C 53% 18.0 mph NNW29.0 kmh NNW 31.0 mph49.9 kmh 30.05 in1017.6 mb 0.00 in0.0 mm 0.00 in0.0 mm 0.00 in0.0 mm
08:45 AM 45.5°F7.5°C 29.4°F-1.4°C 53% 56.0 mph N90.1 kmh N 57.0 mph91.7 kmh 30.05 in1017.6 mb 0.00 in0.0 mm 0.00 in0.0 mm 0.00 in0.0 mm
08:40 AM 45.5°F7.5°C 29.4°F-1.4°C 53% 44.0 mph NNW70.8 kmh NNW 44.0 mph70.8 kmh 30.05 in1017.6 mb 0.00 in0.0 mm 0.00 in0.0 mm 0.00 in0.0 mm
08:35 AM 45.3°F7.4°C 29.7°F-1.3°C 54% 27.0 mph N43.5 kmh N 54.0 mph86.9 kmh 30.05 in1017.6 mb 0.00 in0.0 mm 0.00 in0.0 mm 0.00 in0.0 mm
08:30 AM 45.1°F7.3°C 30.4°F-0.9°C 56% 26.0 mph N41.8 kmh N 46.0 mph74.0 kmh 30.05 in1017.6 mb 0.00 in0.0 mm 0.00 in0.0 mm 0.00 in0.0 mm
08:25 AM 44.7°F7.1°C 30.0°F-1.1°C 56% 22.0 mph NNW35.4 kmh NNW 50.0 mph80.5 kmh 30.05 in1017.6 mb 0.00 in0.0 mm 0.00 in0.0 mm 0.00 in0.0 mm
08:20 AM 44.4°F6.9°C 30.1°F-1.1°C 57% 15.0 mph N24.1 kmh N 20.0 mph32.2 kmh 30.06 in1017.9 mb 0.00 in0.0 mm 0.00 in0.0 mm 0.00 in0.0 mm
08:15 AM 44.5°F6.9°C 30.7°F-0.7°C 58% 17.0 mph NNW27.4 kmh NNW 42.0 mph67.6 kmh 30.06 in1017.9 mb 0.00 in0.0 mm 0.00 in0.0 mm 0.00 in0.0 mm
08:10 AM 44.1°F6.7°C 31.5°F-0.3°C 61% 23.0 mph NW37.0 kmh NW 23.0 mph37.0 kmh 30.06 in1017.9 mb 0.00 in0.0 mm 0.00 in0.0 mm 0.00 in0.0 mm
08:05 AM 43.6°F6.4°C 31.1°F-0.5°C 61% 31.0 mph NNW49.9 kmh NNW 46.0 mph74.0 kmh 30.06 in1017.9 mb 0.00 in0.0 mm 0.00 in0.0 mm 0.00 in0.0 mm
08:00 AM 43.1°F6.2°C 31.0°F-0.6°C 62% 22.0 mph N35.4 kmh N 22.0 mph35.4 kmh 30.06 in1017.9 mb 0.00 in0.0 mm 0.00 in0.0 mm 0.00 in0.0 mm
07:55 AM 42.8°F6.0°C 30.7°F-0.7°C 62% 18.0 mph NW29.0 kmh NW 44.0 mph70.8 kmh 30.06 in1017.9 mb 0.00 in0.0 mm 0.00 in0.0 mm 0.00 in0.0 mm
07:50 AM 42.7°F5.9°C 31.0°F-0.6°C 63% 18.0 mph N29.0 kmh N 24.0 mph38.6 kmh 30.05 in1017.6 mb 0.00 in0.0 mm 0.00 in0.0 mm 0.00 in0.0 mm
07:45 AM 42.7°F5.9°C 31.0°F-0.6°C 63% 30.0 mph NNW48.3 kmh NNW 36.0 mph57.9 kmh 30.06 in1017.9 mb 0.00 in0.0 mm 0.00 in0.0 mm 0.00 in0.0 mm
07:40 AM 42.6°F5.9°C 30.9°F-0.6°C 63% 19.0 mph NW30.6 kmh NW 19.0 mph30.6 kmh 30.06 in1017.9 mb 0.00 in0.0 mm 0.00 in0.0 mm 0.00 in0.0 mm
07:35 AM 42.6°F5.9°C 30.9°F-0.6°C 63% 18.0 mph NW29.0 kmh NW 48.0 mph77.2 kmh 30.05 in1017.6 mb 0.00 in0.0 mm 0.00 in0.0 mm 0.00 in0.0 mm
07:30 AM 42.7°F5.9°C 31.0°F-0.6°C 63% 19.0 mph NW30.6 kmh NW 25.0 mph40.2 kmh 30.05 in1017.6 mb 0.00 in0.0 mm 0.00 in0.0 mm 0.00 in0.0 mm
07:25 AM 42.7°F5.9°C 31.0°F-0.6°C 63% 32.0 mph NW51.5 kmh NW 42.0 mph67.6 kmh 30.05 in1017.6 mb 0.00 in0.0 mm 0.00 in0.0 mm 0.00 in0.0 mm
07:20 AM 42.9°F6.1°C 31.2°F-0.4°C 63% 12.0 mph NNW19.3 kmh NNW 22.0 mph35.4 kmh 30.05 in1017.6 mb 0.00 in0.0 mm 0.00 in0.0 mm 0.00 in0.0 mm
07:15 AM 43.1°F6.2°C 31.4°F-0.3°C 63% 33.0 mph NNW53.1 kmh NNW 45.0 mph72.4 kmh 30.05 in1017.6 mb 0.00 in0.0 mm 0.00 in0.0 mm 0.00 in0.0 mm
07:10 AM 43.3°F6.3°C 31.6°F-0.2°C 63% 21.0 mph NNW33.8 kmh NNW 21.0 mph33.8 kmh 30.05 in1017.6 mb 0.00 in0.0 mm 0.00 in0.0 mm 0.00 in0.0 mm
07:05 AM 43.4°F6.3°C 30.9°F-0.6°C 61% 25.0 mph NW40.2 kmh NW 41.0 mph66.0 kmh 30.05 in1017.6 mb 0.00 in0.0 mm 0.00 in0.0 mm 0.00 in0.0 mm
07:00 AM 43.5°F6.4°C 30.6°F-0.8°C 60% 16.0 mph N25.7 kmh N 24.0 mph38.6 kmh 30.05 in1017.6 mb 0.00 in0.0 mm 0.00 in0.0 mm 0.00 in0.0 mm
06:55 AM 43.6°F6.4°C 31.1°F-0.5°C 61% 34.0 mph NW54.7 kmh NW 44.0 mph70.8 kmh 30.05 in1017.6 mb 0.00 in0.0 mm 0.00 in0.0 mm 0.00 in0.0 mm
06:50 AM 43.6°F6.4°C 31.1°F-0.5°C 61% 31.0 mph NW49.9 kmh NW 31.0 mph49.9 kmh 30.04 in1017.3 mb 0.00 in0.0 mm 0.00 in0.0 mm 0.00 in0.0 mm
06:45 AM 43.5°F6.4°C 31.4°F-0.3°C 62% 23.0 mph NNW37.0 kmh NNW 31.0 mph49.9 kmh 30.05 in1017.6 mb 0.00 in0.0 mm 0.00 in0.0 mm 0.00 in0.0 mm
06:40 AM 43.6°F6.4°C 31.5°F-0.3°C 62% 26.0 mph NNW41.8 kmh NNW 30.0 mph48.3 kmh 30.04 in1017.3 mb 0.00 in0.0 mm 0.00 in0.0 mm 0.00 in0.0 mm
06:35 AM 43.6°F6.4°C 31.5°F-0.3°C 62% 16.0 mph NW25.7 kmh NW 40.0 mph64.4 kmh 30.04 in1017.3 mb 0.00 in0.0 mm 0.00 in0.0 mm 0.00 in0.0 mm
06:30 AM 43.6°F6.4°C 31.5°F-0.3°C 62% 18.0 mph NW29.0 kmh NW 20.0 mph32.2 kmh 30.04 in1017.3 mb 0.00 in0.0 mm 0.00 in0.0 mm 0.00 in0.0 mm
06:25 AM 43.6°F6.4°C 31.9°F-0.1°C 63% 30.0 mph NW48.3 kmh NW 36.0 mph57.9 kmh 30.03 in1016.9 mb 0.00 in0.0 mm 0.00 in0.0 mm 0.00 in0.0 mm
06:20 AM 43.7°F6.5°C 31.6°F-0.2°C 62% 13.0 mph NW20.9 kmh NW 20.0 mph32.2 kmh 30.03 in1016.9 mb 0.00 in0.0 mm 0.00 in0.0 mm 0.00 in0.0 mm
06:15 AM 43.7°F6.5°C 31.6°F-0.2°C 62% 20.0 mph NNW32.2 kmh NNW 42.0 mph67.6 kmh 30.03 in1016.9 mb 0.00 in0.0 mm 0.00 in0.0 mm 0.00 in0.0 mm
06:10 AM 43.7°F6.5°C 32.0°F0.0°C 63% 30.0 mph NW48.3 kmh NW 38.0 mph61.2 kmh 30.03 in1016.9 mb 0.00 in0.0 mm 0.00 in0.0 mm 0.00 in0.0 mm
06:05 AM 43.6°F6.4°C 32.2°F0.1°C 64% 30.0 mph NW48.3 kmh NW 38.0 mph61.2 kmh 30.02 in1016.6 mb 0.00 in0.0 mm 0.00 in0.0 mm 0.00 in0.0 mm
06:00 AM 43.8°F6.6°C 32.4°F0.2°C 64% 28.0 mph NNW45.1 kmh NNW 32.0 mph51.5 kmh 30.02 in1016.6 mb 0.00 in0.0 mm 0.00 in0.0 mm 0.00 in0.0 mm
05:55 AM 43.9°F6.6°C 32.5°F0.3°C 64% 24.0 mph NNW38.6 kmh NNW 30.0 mph48.3 kmh 30.02 in1016.6 mb 0.00 in0.0 mm 0.00 in0.0 mm 0.00 in0.0 mm
05:50 AM 44.1°F6.7°C 32.7°F0.4°C 64% 24.0 mph NNW38.6 kmh NNW 30.0 mph48.3 kmh 30.02 in1016.6 mb 0.00 in0.0 mm 0.00 in0.0 mm 0.00 in0.0 mm
05:45 AM 44.2°F6.8°C 32.4°F0.2°C 63% 32.0 mph NW51.5 kmh NW 46.0 mph74.0 kmh 30.01 in1016.3 mb 0.00 in0.0 mm 0.00 in0.0 mm 0.00 in0.0 mm
05:40 AM 44.3°F6.8°C 32.5°F0.3°C 63% 27.0 mph N43.5 kmh N 27.0 mph43.5 kmh 30.01 in1016.3 mb 0.00 in0.0 mm 0.00 in0.0 mm 0.00 in0.0 mm
05:35 AM 44.3°F6.8°C 32.9°F0.5°C 64% 27.0 mph NNW43.5 kmh NNW 44.0 mph70.8 kmh 30.00 in1015.9 mb 0.00 in0.0 mm 0.00 in0.0 mm 0.00 in0.0 mm
05:30 AM 44.4°F6.9°C 33.0°F0.6°C 64% 16.0 mph NNW25.7 kmh NNW 20.0 mph32.2 kmh 30.00 in1015.9 mb 0.00 in0.0 mm 0.00 in0.0 mm 0.00 in0.0 mm
05:25 AM 44.5°F6.9°C 33.1°F0.6°C 64% 24.0 mph NNW38.6 kmh NNW 40.0 mph64.4 kmh 30.00 in1015.9 mb 0.00 in0.0 mm 0.00 in0.0 mm 0.00 in0.0 mm
05:20 AM 44.5°F6.9°C 33.1°F0.6°C 64% 34.0 mph NW54.7 kmh NW 36.0 mph57.9 kmh 29.99 in1015.6 mb 0.00 in0.0 mm 0.00 in0.0 mm 0.00 in0.0 mm
05:15 AM 44.6°F7.0°C 33.2°F0.7°C 64% 24.0 mph NNW38.6 kmh NNW 43.0 mph69.2 kmh 29.99 in1015.6 mb 0.00 in0.0 mm 0.00 in0.0 mm 0.00 in0.0 mm
05:10 AM 44.6°F7.0°C 33.6°F0.9°C 65% 10.0 mph N16.1 kmh N 22.0 mph35.4 kmh 29.99 in1015.6 mb 0.00 in0.0 mm 0.00 in0.0 mm 0.00 in0.0 mm
05:05 AM 44.7°F7.1°C 34.1°F1.2°C 66% 36.0 mph NW57.9 kmh NW 42.0 mph67.6 kmh 29.99 in1015.6 mb 0.00 in0.0 mm 0.00 in0.0 mm 0.00 in0.0 mm
05:00 AM 44.7°F7.1°C 34.1°F1.2°C 66% 10.0 mph NW16.1 kmh NW 16.0 mph25.7 kmh 29.99 in1015.6 mb 0.00 in0.0 mm 0.00 in0.0 mm 0.00 in0.0 mm
04:55 AM 44.8°F7.1°C 34.5°F1.4°C 67% 29.0 mph NW46.7 kmh NW 37.0 mph59.5 kmh 29.98 in1015.2 mb 0.00 in0.0 mm 0.00 in0.0 mm 0.00 in0.0 mm
04:50 AM 44.9°F7.2°C 34.6°F1.4°C 67% 15.0 mph NW24.1 kmh NW 15.0 mph24.1 kmh 29.98 in1015.2 mb 0.00 in0.0 mm 0.00 in0.0 mm 0.00 in0.0 mm
04:45 AM 44.9°F7.2°C 34.2°F1.2°C 66% 14.0 mph WNW22.5 kmh WNW 36.0 mph57.9 kmh 29.98 in1015.2 mb 0.00 in0.0 mm 0.00 in0.0 mm 0.00 in0.0 mm
04:40 AM 45.0°F7.2°C 34.7°F1.5°C 67% 25.0 mph NW40.2 kmh NW 25.0 mph40.2 kmh 29.98 in1015.2 mb 0.00 in0.0 mm 0.00 in0.0 mm 0.00 in0.0 mm
04:35 AM 45.0°F7.2°C 34.7°F1.5°C 67% 28.0 mph NW45.1 kmh NW 40.0 mph64.4 kmh 29.98 in1015.2 mb 0.00 in0.0 mm 0.00 in0.0 mm 0.00 in0.0 mm
04:30 AM 45.0°F7.2°C 34.7°F1.5°C 67% 26.0 mph NNW41.8 kmh NNW 32.0 mph51.5 kmh 29.98 in1015.2 mb 0.00 in0.0 mm 0.00 in0.0 mm 0.00 in0.0 mm
04:25 AM 45.1°F7.3°C 35.2°F1.8°C 68% 13.0 mph NNW20.9 kmh NNW 42.0 mph67.6 kmh 29.98 in1015.2 mb 0.00 in0.0 mm 0.00 in0.0 mm 0.00 in0.0 mm
04:20 AM 45.1°F7.3°C 35.2°F1.8°C 68% 26.0 mph N41.8 kmh N 32.0 mph51.5 kmh 29.97 in1014.9 mb 0.00 in0.0 mm 0.00 in0.0 mm 0.00 in0.0 mm
04:15 AM 45.2°F7.3°C 35.7°F2.1°C 69% 26.0 mph NW41.8 kmh NW 44.0 mph70.8 kmh 29.97 in1014.9 mb 0.00 in0.0 mm 0.00 in0.0 mm 0.00 in0.0 mm
04:10 AM 45.4°F7.4°C 35.8°F2.1°C 69% 28.0 mph NW45.1 kmh NW 41.0 mph66.0 kmh 29.96 in1014.6 mb 0.00 in0.0 mm 0.00 in0.0 mm 0.00 in0.0 mm
04:05 AM 45.6°F7.6°C 36.0°F2.2°C 69% 32.0 mph NW51.5 kmh NW 40.0 mph64.4 kmh 29.96 in1014.6 mb 0.00 in0.0 mm 0.00 in0.0 mm 0.00 in0.0 mm
04:00 AM 45.9°F7.7°C 35.6°F2.0°C 67% 26.0 mph NW41.8 kmh NW 26.0 mph41.8 kmh 29.96 in1014.6 mb 0.00 in0.0 mm 0.00 in0.0 mm 0.00 in0.0 mm
03:55 AM 46.1°F7.8°C 35.0°F1.7°C 65% 34.0 mph N54.7 kmh N 42.0 mph67.6 kmh 29.95 in1014.2 mb 0.00 in0.0 mm 0.00 in0.0 mm 0.00 in0.0 mm
03:50 AM 46.1°F7.8°C 34.6°F1.4°C 64% 22.0 mph NNW35.4 kmh NNW 22.0 mph35.4 kmh 29.95 in1014.2 mb 0.00 in0.0 mm 0.00 in0.0 mm 0.00 in0.0 mm
03:45 AM 46.0°F7.8°C 34.9°F1.6°C 65% 22.0 mph NNW35.4 kmh NNW 40.0 mph64.4 kmh 29.94 in1013.9 mb 0.00 in0.0 mm 0.00 in0.0 mm 0.00 in0.0 mm
03:35 AM 45.8°F7.7°C 34.7°F1.5°C 65% 24.0 mph NNW38.6 kmh NNW 42.0 mph67.6 kmh 29.93 in1013.5 mb 0.00 in0.0 mm 0.00 in0.0 mm 0.00 in0.0 mm
03:30 AM 45.8°F7.7°C 34.7°F1.5°C 65% 24.0 mph NNE38.6 kmh NNE 32.0 mph51.5 kmh 29.93 in1013.5 mb 0.00 in0.0 mm 0.00 in0.0 mm 0.00 in0.0 mm
03:25 AM 45.9°F7.7°C 34.8°F1.6°C 65% 10.0 mph N16.1 kmh N 35.0 mph56.3 kmh 29.93 in1013.5 mb 0.00 in0.0 mm 0.00 in0.0 mm 0.00 in0.0 mm
03:20 AM 46.0°F7.8°C 34.5°F1.4°C 64% 8.0 mph N12.9 kmh N 24.0 mph38.6 kmh 29.93 in1013.5 mb 0.00 in0.0 mm 0.00 in0.0 mm 0.00 in0.0 mm
03:15 AM 46.1°F7.8°C 34.6°F1.4°C 64% 25.0 mph NNW40.2 kmh NNW 42.0 mph67.6 kmh 29.93 in1013.5 mb 0.00 in0.0 mm 0.00 in0.0 mm 0.00 in0.0 mm
03:10 AM 46.2°F7.9°C 34.3°F1.3°C 63% 36.0 mph NNW57.9 kmh NNW 42.0 mph67.6 kmh 29.92 in1013.2 mb 0.00 in0.0 mm 0.00 in0.0 mm 0.00 in0.0 mm
03:05 AM 46.3°F7.9°C 34.4°F1.3°C 63% 22.0 mph NNE35.4 kmh NNE 39.0 mph62.8 kmh 29.93 in1013.5 mb 0.00 in0.0 mm 0.00 in0.0 mm 0.00 in0.0 mm
03:00 AM 46.4°F8.0°C 34.5°F1.4°C 63% 27.0 mph N43.5 kmh N 34.0 mph54.7 kmh 29.93 in1013.5 mb 0.00 in0.0 mm 0.00 in0.0 mm 0.00 in0.0 mm
02:55 AM 46.5°F8.1°C 34.2°F1.2°C 62% 24.0 mph NNW38.6 kmh NNW 55.0 mph88.5 kmh 29.92 in1013.2 mb 0.00 in0.0 mm 0.00 in0.0 mm 0.00 in0.0 mm
02:50 AM 46.7°F8.2°C 34.4°F1.3°C 62% 17.0 mph NW27.4 kmh NW 40.0 mph64.4 kmh 29.93 in1013.5 mb 0.00 in0.0 mm 0.00 in0.0 mm 0.00 in0.0 mm
02:45 AM 46.8°F8.2°C 34.1°F1.2°C 61% 26.0 mph N41.8 kmh N 53.0 mph85.3 kmh 29.92 in1013.2 mb 0.00 in0.0 mm 0.00 in0.0 mm 0.00 in0.0 mm
02:40 AM 46.8°F8.2°C 33.7°F0.9°C 60% 28.0 mph NW45.1 kmh NW 32.0 mph51.5 kmh 29.93 in1013.5 mb 0.00 in0.0 mm 0.00 in0.0 mm 0.00 in0.0 mm
02:35 AM 46.7°F8.2°C 33.6°F0.9°C 60% 17.0 mph NW27.4 kmh NW 42.0 mph67.6 kmh 29.93 in1013.5 mb 0.00 in0.0 mm 0.00 in0.0 mm 0.00 in0.0 mm
02:30 AM 46.5°F8.1°C 33.8°F1.0°C 61% 21.0 mph NW33.8 kmh NW 32.0 mph51.5 kmh 29.92 in1013.2 mb 0.00 in0.0 mm 0.00 in0.0 mm 0.00 in0.0 mm
02:25 AM 46.5°F8.1°C 33.8°F1.0°C 61% 12.0 mph NNW19.3 kmh NNW 28.0 mph45.1 kmh 29.92 in1013.2 mb 0.00 in0.0 mm 0.00 in0.0 mm 0.00 in0.0 mm
02:20 AM 46.5°F8.1°C 33.8°F1.0°C 61% 16.0 mph NW25.7 kmh NW 16.0 mph25.7 kmh 29.92 in1013.2 mb 0.00 in0.0 mm 0.00 in0.0 mm 0.00 in0.0 mm
02:15 AM 46.5°F8.1°C 34.2°F1.2°C 62% 12.0 mph NW19.3 kmh NW 29.0 mph46.7 kmh 29.92 in1013.2 mb 0.00 in0.0 mm 0.00 in0.0 mm 0.00 in0.0 mm
02:10 AM 46.4°F8.0°C 33.7°F0.9°C 61% 9.0 mph NW14.5 kmh NW 18.0 mph29.0 kmh 29.92 in1013.2 mb 0.00 in0.0 mm 0.00 in0.0 mm 0.00 in0.0 mm
02:05 AM 46.4°F8.0°C 34.1°F1.2°C 62% 20.0 mph NW32.2 kmh NW 30.0 mph48.3 kmh 29.91 in1012.9 mb 0.00 in0.0 mm 0.00 in0.0 mm 0.00 in0.0 mm
02:00 AM 46.3°F7.9°C 34.4°F1.3°C 63% 14.0 mph NW22.5 kmh NW 14.0 mph22.5 kmh 29.92 in1013.2 mb 0.00 in0.0 mm 0.00 in0.0 mm 0.00 in0.0 mm
01:55 AM 46.3°F7.9°C 34.4°F1.3°C 63% 14.0 mph NW22.5 kmh NW 24.0 mph38.6 kmh 29.92 in1013.2 mb 0.00 in0.0 mm 0.00 in0.0 mm 0.00 in0.0 mm
01:50 AM 46.2°F7.9°C 34.3°F1.3°C 63% 6.0 mph WNW9.7 kmh WNW 13.0 mph20.9 kmh 29.92 in1013.2 mb 0.00 in0.0 mm 0.00 in0.0 mm 0.00 in0.0 mm
01:45 AM 46.3°F7.9°C 34.4°F1.3°C 63% 4.0 mph NW6.4 kmh NW 20.0 mph32.2 kmh 29.92 in1013.2 mb 0.00 in0.0 mm 0.00 in0.0 mm 0.00 in0.0 mm
01:40 AM 46.2°F7.9°C 34.3°F1.3°C 63% 12.0 mph NW19.3 kmh NW 14.0 mph22.5 kmh 29.92 in1013.2 mb 0.00 in0.0 mm 0.00 in0.0 mm 0.00 in0.0 mm
01:35 AM 46.1°F7.8°C 34.6°F1.4°C 64% 14.0 mph NW22.5 kmh NW 16.0 mph25.7 kmh 29.92 in1013.2 mb 0.00 in0.0 mm 0.00 in0.0 mm 0.00 in0.0 mm
01:30 AM 46.1°F7.8°C 34.6°F1.4°C 64% 2.0 mph NW3.2 kmh NW 8.0 mph12.9 kmh 29.92 in1013.2 mb 0.00 in0.0 mm 0.00 in0.0 mm 0.00 in0.0 mm
01:25 AM 46.2°F7.9°C 34.7°F1.5°C 64% 8.0 mph NW12.9 kmh NW 12.0 mph19.3 kmh 29.92 in1013.2 mb 0.00 in0.0 mm 0.00 in0.0 mm 0.00 in0.0 mm
01:20 AM 46.1°F7.8°C 34.6°F1.4°C 64% 4.0 mph NW6.4 kmh NW 6.0 mph9.7 kmh 29.92 in1013.2 mb 0.00 in0.0 mm 0.00 in0.0 mm 0.00 in0.0 mm
01:15 AM 46.1°F7.8°C 35.0°F1.7°C 65% 12.0 mph NW19.3 kmh NW 18.0 mph29.0 kmh 29.92 in1013.2 mb 0.00 in0.0 mm 0.00 in0.0 mm 0.00 in0.0 mm
01:10 AM 46.0°F7.8°C 34.5°F1.4°C 64% 8.0 mph NW12.9 kmh NW 14.0 mph22.5 kmh 29.92 in1013.2 mb 0.00 in0.0 mm 0.00 in0.0 mm 0.00 in0.0 mm
01:05 AM 46.0°F7.8°C 34.9°F1.6°C 65% 15.0 mph N24.1 kmh N 26.0 mph41.8 kmh 29.91 in1012.9 mb 0.00 in0.0 mm 0.00 in0.0 mm 0.00 in0.0 mm
01:00 AM 45.8°F7.7°C 34.7°F1.5°C 65% 14.0 mph NNW22.5 kmh NNW 14.0 mph22.5 kmh 29.91 in1012.9 mb 0.00 in0.0 mm 0.00 in0.0 mm 0.00 in0.0 mm
12:55 AM 45.6°F7.6°C 34.5°F1.4°C 65% 19.0 mph NW30.6 kmh NW 26.0 mph41.8 kmh 29.91 in1012.9 mb 0.00 in0.0 mm 0.00 in0.0 mm 0.00 in0.0 mm
12:50 AM 45.4°F7.4°C 35.1°F1.7°C 67% 8.0 mph NW12.9 kmh NW 9.0 mph14.5 kmh 29.91 in1012.9 mb 0.00 in0.0 mm 0.00 in0.0 mm 0.00 in0.0 mm
12:45 AM 45.2°F7.3°C 34.9°F1.6°C 67% 11.0 mph NW17.7 kmh NW 18.0 mph29.0 kmh 29.91 in1012.9 mb 0.00 in0.0 mm 0.00 in0.0 mm 0.00 in0.0 mm
12:40 AM 44.8°F7.1°C 35.3°F1.8°C 69% 12.0 mph NW19.3 kmh NW 18.0 mph29.0 kmh 29.91 in1012.9 mb 0.00 in0.0 mm 0.00 in0.0 mm 0.00 in0.0 mm
12:35 AM 44.6°F7.0°C 35.8°F2.1°C 71% 4.0 mph NW6.4 kmh NW 10.0 mph16.1 kmh 29.91 in1012.9 mb 0.00 in0.0 mm 0.00 in0.0 mm 0.00 in0.0 mm
12:30 AM 44.5°F6.9°C 36.1°F2.3°C 72% Calm Calm -- 29.91 in1012.9 mb 0.00 in0.0 mm 0.00 in0.0 mm 0.00 in0.0 mm
12:25 AM 44.5°F6.9°C 36.4°F2.4°C 73% 7.0 mph W11.3 kmh W 10.0 mph16.1 kmh 29.91 in1012.9 mb 0.00 in0.0 mm 0.00 in0.0 mm 0.00 in0.0 mm
12:20 AM 44.4°F6.9°C 36.3°F2.4°C 73% 10.0 mph NW16.1 kmh NW 10.0 mph16.1 kmh 29.91 in1012.9 mb 0.00 in0.0 mm 0.00 in0.0 mm 0.00 in0.0 mm
12:15 AM 44.5°F6.9°C 36.4°F2.4°C 73% Calm Calm 9.0 mph14.5 kmh 29.91 in1012.9 mb 0.00 in0.0 mm 0.00 in0.0 mm 0.00 in0.0 mm
12:10 AM 44.6°F7.0°C 36.5°F2.5°C 73% 1.0 mph W1.6 kmh W 1.0 mph1.6 kmh 29.91 in1012.9 mb 0.00 in0.0 mm 0.00 in0.0 mm 0.00 in0.0 mm
12:05 AM 44.6°F7.0°C 36.2°F2.3°C 72% Calm Calm 12.0 mph19.3 kmh 29.90 in1012.5 mb 0.00 in0.0 mm 0.00 in0.0 mm 0.00 in0.0 mm
12:00 AM 44.8°F7.1°C 36.0°F2.2°C 71% Calm Calm -- 29.90 in1012.5 mb 0.00 in0.0 mm 0.00 in0.0 mm 0.00 in0.0 mm